createdAt,value
2023-02-19T00:01:49.221Z,88.92
2023-02-19T00:04:19.448Z,88.98
2023-02-19T00:06:47.928Z,88.95
2023-02-19T00:09:16.902Z,89.51
2023-02-19T00:11:46.142Z,89.72
2023-02-19T00:14:16.653Z,89.53
2023-02-19T00:16:44.245Z,88.68
2023-02-19T00:19:14.499Z,88.94
2023-02-19T00:21:43.598Z,88.84
2023-02-19T00:24:12.778Z,89.71
2023-02-19T00:26:41.677Z,90.08
2023-02-19T00:29:10.160Z,90.93
2023-02-19T00:31:37.765Z,89.65
2023-02-19T00:34:06.537Z,90.57
2023-02-19T00:36:35.929Z,90.34
2023-02-19T00:39:05.545Z,90.15
2023-02-19T00:41:33.119Z,88.53
2023-02-19T00:44:02.283Z,88.19
2023-02-19T00:46:31.942Z,88.06
2023-02-19T00:49:00.299Z,88.33
2023-02-19T00:51:30.065Z,87.73
2023-02-19T00:53:57.985Z,87.59
2023-02-19T00:56:27.109Z,88.61
2023-02-19T00:58:54.953Z,88.96
2023-02-19T01:01:22.727Z,90.47
2023-02-19T01:03:51.189Z,90.75
2023-02-19T01:06:20.501Z,89.34
2023-02-19T01:08:48.543Z,88.82
2023-02-19T01:11:16.641Z,88.54
2023-02-19T01:13:45.663Z,89.53
2023-02-19T01:16:15.885Z,90.37
2023-02-19T01:18:44.528Z,88.69
2023-02-19T01:21:15.127Z,88.89
2023-02-19T01:23:43.068Z,88.83
2023-02-19T01:26:14.153Z,88.86
2023-02-19T01:28:42.581Z,88.11
2023-02-19T01:31:14.610Z,88.77
2023-02-19T01:33:46.109Z,89.56
2023-02-19T01:36:13.764Z,90.31
2023-02-19T01:38:41.509Z,89.97
2023-02-19T01:41:11.579Z,90.23
2023-02-19T01:43:59.256Z,91.04
2023-02-19T01:46:29.008Z,90.96
2023-02-19T01:48:59.365Z,90.63
2023-02-19T01:51:27.717Z,91.76
2023-02-19T01:53:58.478Z,91.55
2023-02-19T01:56:27.725Z,92.09
2023-02-19T01:58:55.515Z,91.68
2023-02-19T02:01:23.095Z,91.53
2023-02-19T02:03:52.445Z,90.85
2023-02-19T02:06:23.716Z,91.15
2023-02-19T02:09:11.242Z,90.54
2023-02-19T02:11:41.474Z,91.20
2023-02-19T02:14:09.086Z,91.09
2023-02-19T02:16:45.839Z,91.46
2023-02-19T02:19:32.099Z,90.10
2023-02-19T02:22:07.219Z,90.85
2023-02-19T02:25:06.202Z,90.46
2023-02-19T02:27:46.439Z,91.18
2023-02-19T02:30:38.614Z,91.50
2023-02-19T02:33:16.001Z,92.31
2023-02-19T02:35:48.252Z,91.75
2023-02-19T02:38:18.064Z,91.89
2023-02-19T02:40:46.011Z,92.15
2023-02-19T02:43:14.780Z,91.06
2023-02-19T02:45:43.791Z,91.27
2023-02-19T02:48:18.055Z,89.55
2023-02-19T02:50:51.134Z,90.05
2023-02-19T02:53:41.451Z,88.93
2023-02-19T02:56:11.212Z,89.81
2023-02-19T02:58:39.431Z,90.67
2023-02-19T03:01:30.296Z,90.60
2023-02-19T03:04:03.979Z,89.84
2023-02-19T03:06:35.210Z,89.18
2023-02-19T03:09:10.510Z,89.18
2023-02-19T03:11:57.442Z,90.00
2023-02-19T03:14:49.986Z,89.52
2023-02-19T03:17:42.384Z,88.69
2023-02-19T03:20:14.508Z,88.61
2023-02-19T03:22:45.720Z,89.69
2023-02-19T03:25:33.392Z,89.91
2023-02-19T03:28:04.614Z,88.98
2023-02-19T03:30:35.602Z,89.81
2023-02-19T03:33:09.120Z,89.13
2023-02-19T03:35:41.444Z,88.79
2023-02-19T03:38:18.531Z,89.24
2023-02-19T03:40:53.725Z,89.16
2023-02-19T03:43:25.036Z,88.13
2023-02-19T03:46:03.728Z,88.23
2023-02-19T03:48:35.710Z,88.10
2023-02-19T03:51:13.888Z,87.69
2023-02-19T03:53:52.915Z,87.60
2023-02-19T03:56:26.927Z,87.91
2023-02-19T03:59:00.364Z,88.74
2023-02-19T04:01:33.318Z,88.74
2023-02-19T04:04:07.144Z,88.52
2023-02-19T04:06:36.231Z,88.25
2023-02-19T04:09:07.956Z,87.91
2023-02-19T04:11:37.553Z,87.59
2023-02-19T04:14:10.778Z,87.79
2023-02-19T04:16:42.337Z,88.09
2023-02-19T04:19:14.328Z,88.69
2023-02-19T04:21:43.132Z,88.34
2023-02-19T04:24:14.687Z,88.25
2023-02-19T04:26:43.454Z,87.82
2023-02-19T04:29:10.910Z,87.24
2023-02-19T04:31:39.515Z,86.73
2023-02-19T04:34:07.018Z,86.90
2023-02-19T04:36:35.895Z,88.15
2023-02-19T04:39:03.810Z,86.78
2023-02-19T04:41:31.507Z,86.80
2023-02-19T04:43:58.989Z,85.73
2023-02-19T04:46:26.481Z,86.35
2023-02-19T04:48:53.972Z,86.91
2023-02-19T04:51:21.497Z,87.92
2023-02-19T04:53:50.403Z,88.03
2023-02-19T04:56:18.775Z,87.06
2023-02-19T04:58:46.936Z,87.17
2023-02-19T05:01:15.197Z,86.93
2023-02-19T05:03:42.742Z,87.65
2023-02-19T05:06:13.025Z,87.34
2023-02-19T05:08:41.118Z,87.02
2023-02-19T05:11:12.706Z,87.90
2023-02-19T05:13:41.236Z,88.36
2023-02-19T05:16:13.179Z,87.33
2023-02-19T05:18:41.681Z,85.99
2023-02-19T05:21:10.149Z,86.01
2023-02-19T05:23:38.216Z,85.58
2023-02-19T05:26:07.208Z,85.70
2023-02-19T05:28:36.288Z,86.49
2023-02-19T05:31:06.581Z,86.01
2023-02-19T05:33:34.303Z,85.40
2023-02-19T05:36:06.622Z,85.64
2023-02-19T05:38:34.128Z,85.63
2023-02-19T05:41:09.278Z,86.05
2023-02-19T05:43:38.411Z,86.12
2023-02-19T05:46:06.587Z,86.13
2023-02-19T05:48:34.515Z,85.47
2023-02-19T05:51:04.019Z,84.50
2023-02-19T05:53:32.192Z,84.52
2023-02-19T05:56:00.240Z,84.70
2023-02-19T05:58:28.220Z,84.11
2023-02-19T06:00:57.183Z,85.17
2023-02-19T06:03:25.613Z,85.56
2023-02-19T06:05:53.103Z,85.23
2023-02-19T06:08:20.601Z,85.17
2023-02-19T06:10:48.095Z,83.93
2023-02-19T06:13:17.729Z,83.95
2023-02-19T06:15:45.417Z,84.42
2023-02-19T06:18:14.282Z,85.27
2023-02-19T06:20:41.788Z,85.88
2023-02-19T06:23:09.250Z,86.26
2023-02-19T06:25:36.727Z,85.34
2023-02-19T06:28:04.696Z,86.15
2023-02-19T06:30:32.211Z,86.39
2023-02-19T06:32:59.704Z,86.50
2023-02-19T06:35:28.600Z,88.34
2023-02-19T06:37:56.056Z,89.37
2023-02-19T06:40:23.578Z,87.42
2023-02-19T06:42:51.047Z,85.58
2023-02-19T06:45:18.674Z,85.17
2023-02-19T06:47:46.137Z,84.50
2023-02-19T06:50:13.595Z,85.01
2023-02-19T06:52:42.369Z,85.96
2023-02-19T06:55:10.090Z,85.60
2023-02-19T06:57:37.563Z,85.66
2023-02-19T07:00:05.796Z,85.63
2023-02-19T07:02:33.279Z,85.73
2023-02-19T07:05:00.747Z,85.86
2023-02-19T07:07:28.209Z,85.88
2023-02-19T07:09:57.015Z,85.62
2023-02-19T07:12:24.499Z,84.85
2023-02-19T07:14:51.967Z,84.92
2023-02-19T07:17:19.569Z,85.04
2023-02-19T07:19:47.056Z,84.61
2023-02-19T07:22:14.544Z,85.55
2023-02-19T07:24:42.006Z,85.40
2023-02-19T07:27:10.815Z,85.03
2023-02-19T07:29:38.308Z,85.51
2023-02-19T07:32:05.922Z,85.91
2023-02-19T07:34:33.413Z,85.73
2023-02-19T07:37:00.888Z,84.96
2023-02-19T07:39:28.371Z,85.47
2023-02-19T07:41:55.939Z,87.42
2023-02-19T07:44:24.736Z,87.84
2023-02-19T07:46:52.237Z,88.27
2023-02-19T07:49:20.015Z,86.68
2023-02-19T07:51:47.506Z,86.52
2023-02-19T07:54:14.974Z,86.03
2023-02-19T07:56:42.444Z,86.17
2023-02-19T07:59:10.603Z,85.48
2023-02-19T08:01:56.921Z,85.09
2023-02-19T08:04:24.438Z,85.71
2023-02-19T08:06:54.288Z,85.85
2023-02-19T08:09:21.777Z,86.71
2023-02-19T08:12:06.778Z,86.20
2023-02-19T08:14:34.275Z,85.63
2023-02-19T08:17:05.403Z,85.02
2023-02-19T08:19:32.928Z,85.05
2023-02-19T08:22:02.907Z,86.04
2023-02-19T08:24:33.850Z,85.63
2023-02-19T08:27:03.677Z,85.09
2023-02-19T08:29:31.152Z,85.40
2023-02-19T08:32:01.075Z,84.95
2023-02-19T08:34:31.979Z,85.01
2023-02-19T08:37:00.763Z,84.61
2023-02-19T08:39:28.256Z,83.78
2023-02-19T08:41:55.735Z,83.88
2023-02-19T08:44:23.200Z,83.45
2023-02-19T08:46:50.689Z,83.23
2023-02-19T08:49:18.171Z,83.22
2023-02-19T08:51:47.020Z,82.67
2023-02-19T08:54:14.483Z,83.22
2023-02-19T08:56:41.981Z,83.93
2023-02-19T08:59:09.439Z,83.82
2023-02-19T09:01:37.026Z,84.58
2023-02-19T09:04:04.645Z,83.75
2023-02-19T09:06:32.141Z,83.51
2023-02-19T09:09:00.945Z,83.22
2023-02-19T09:11:28.503Z,84.07
2023-02-19T09:13:57.417Z,83.19
2023-02-19T09:16:24.948Z,83.47
2023-02-19T09:18:52.432Z,83.55
2023-02-19T09:21:19.921Z,83.40
2023-02-19T09:23:47.398Z,83.76
2023-02-19T09:26:16.381Z,82.84
2023-02-19T09:28:43.892Z,82.80
2023-02-19T09:31:13.843Z,84.00
2023-02-19T09:33:44.244Z,84.40
2023-02-19T09:36:12.244Z,84.20
2023-02-19T09:38:40.471Z,83.72
2023-02-19T09:41:11.176Z,82.86
2023-02-19T09:43:40.208Z,83.45
2023-02-19T09:46:15.624Z,83.45
2023-02-19T09:48:43.147Z,82.79
2023-02-19T09:51:13.362Z,83.27
2023-02-19T09:53:44.714Z,83.55
2023-02-19T09:56:12.457Z,82.70
2023-02-19T09:58:48.831Z,82.27
2023-02-19T10:01:16.866Z,81.99
2023-02-19T10:03:47.020Z,81.19
2023-02-19T10:06:20.721Z,82.11
2023-02-19T10:08:50.660Z,81.80
2023-02-19T10:11:19.214Z,80.98
2023-02-19T10:13:52.701Z,80.81
2023-02-19T10:16:26.249Z,81.24
2023-02-19T10:18:54.357Z,81.33
2023-02-19T10:21:24.081Z,82.23
2023-02-19T10:23:55.479Z,82.29
2023-02-19T10:26:23.447Z,81.51
2023-02-19T10:28:54.027Z,80.88
2023-02-19T10:31:24.910Z,80.87
2023-02-19T10:33:53.978Z,80.05
2023-02-19T10:36:30.527Z,80.50
2023-02-19T10:39:01.261Z,81.00
2023-02-19T10:41:29.859Z,80.30
2023-02-19T10:44:05.082Z,80.47
2023-02-19T10:46:34.079Z,81.09
2023-02-19T10:49:04.971Z,80.77
2023-02-19T10:51:35.144Z,79.09
2023-02-19T10:54:08.043Z,79.55
2023-02-19T10:56:38.403Z,78.46
2023-02-19T10:59:26.180Z,78.09
2023-02-19T11:01:58.460Z,77.84
2023-02-19T11:04:27.252Z,77.31
2023-02-19T11:06:55.186Z,78.17
2023-02-19T11:09:27.912Z,78.00
2023-02-19T11:11:57.307Z,77.35
2023-02-19T11:14:28.289Z,77.99
2023-02-19T11:16:58.038Z,77.32
2023-02-19T11:19:30.025Z,77.14
2023-02-19T11:21:58.722Z,77.72
2023-02-19T11:24:33.748Z,77.28
2023-02-19T11:27:04.007Z,77.33
2023-02-19T11:29:34.837Z,77.62
2023-02-19T11:32:25.019Z,77.22
2023-02-19T11:34:53.256Z,76.71
2023-02-19T11:37:22.500Z,77.42
2023-02-19T11:39:52.193Z,76.58
2023-02-19T11:42:37.710Z,75.64
2023-02-19T11:45:23.387Z,74.94
2023-02-19T11:48:07.618Z,75.04
2023-02-19T11:50:49.403Z,75.28
2023-02-19T11:53:26.022Z,74.58
2023-02-19T11:56:06.748Z,74.58
2023-02-19T11:58:52.705Z,74.18
2023-02-19T12:01:28.792Z,73.81
2023-02-19T12:04:09.791Z,74.44
2023-02-19T12:06:52.038Z,74.90
2023-02-19T12:09:38.657Z,74.18
2023-02-19T12:12:20.790Z,73.22
2023-02-19T12:15:07.355Z,73.41
2023-02-19T12:18:04.006Z,74.35
2023-02-19T12:20:41.880Z,74.19
2023-02-19T12:23:39.847Z,74.75
2023-02-19T12:26:13.600Z,75.37
2023-02-19T12:28:58.482Z,74.54
2023-02-19T12:31:43.150Z,73.57
2023-02-19T12:34:56.560Z,75.54
2023-02-19T12:37:37.380Z,74.95
2023-02-19T12:40:23.884Z,73.74
2023-02-19T12:43:02.706Z,72.45
2023-02-19T12:45:35.528Z,72.66
2023-02-19T12:48:10.717Z,72.51
2023-02-19T12:50:40.326Z,74.66
2023-02-19T12:53:25.746Z,74.25
2023-02-19T12:55:54.327Z,73.21
2023-02-19T12:58:28.909Z,73.83
2023-02-19T13:00:59.632Z,73.75
2023-02-19T13:03:33.489Z,74.51
2023-02-19T13:06:09.704Z,74.89
2023-02-19T13:09:03.511Z,74.62
2023-02-19T13:11:37.572Z,76.27
2023-02-19T13:14:15.919Z,77.49
2023-02-19T13:16:47.588Z,76.93
2023-02-19T13:19:15.182Z,76.75
2023-02-19T13:22:03.162Z,74.87
2023-02-19T13:24:36.248Z,75.78
2023-02-19T13:27:29.419Z,75.55
2023-02-19T13:30:09.348Z,74.37
2023-02-19T13:32:54.354Z,74.68
2023-02-19T13:35:28.668Z,72.69
2023-02-19T13:38:01.202Z,72.24
2023-02-19T13:40:34.777Z,72.19
2023-02-19T13:43:05.320Z,72.48
2023-02-19T13:45:36.734Z,71.66
2023-02-19T13:48:15.828Z,71.54
2023-02-19T13:50:43.399Z,71.29
2023-02-19T13:53:48.424Z,71.06
2023-02-19T13:56:38.923Z,72.07
2023-02-19T13:59:34.766Z,72.49
2023-02-19T14:02:26.428Z,71.38
2023-02-19T14:04:56.875Z,72.36
2023-02-19T14:08:03.343Z,71.26
2023-02-19T14:11:03.489Z,72.60
2023-02-19T14:14:06.336Z,72.63
2023-02-19T14:17:05.499Z,73.67
2023-02-19T14:19:52.101Z,75.04
2023-02-19T14:23:11.806Z,74.49
2023-02-19T14:25:46.349Z,73.69
2023-02-19T14:28:29.860Z,74.08
2023-02-19T14:31:03.317Z,74.54
2023-02-19T14:33:33.677Z,74.63
2023-02-19T14:36:06.663Z,75.09
2023-02-19T14:38:38.224Z,75.24
2023-02-19T14:41:07.538Z,76.96
2023-02-19T14:43:37.345Z,77.32
2023-02-19T14:46:19.080Z,77.57
2023-02-19T14:48:50.016Z,76.83
2023-02-19T14:51:26.984Z,77.27
2023-02-19T14:53:56.256Z,76.52
2023-02-19T14:56:26.917Z,76.23
2023-02-19T14:59:08.879Z,76.85
2023-02-19T15:01:38.245Z,77.96
2023-02-19T15:04:06.471Z,78.02
2023-02-19T15:06:36.726Z,77.62
2023-02-19T15:09:07.161Z,78.42
2023-02-19T15:11:36.518Z,77.68
2023-02-19T15:14:06.867Z,78.44
2023-02-19T15:16:36.914Z,78.23
2023-02-19T15:19:10.013Z,77.38
2023-02-19T15:21:40.911Z,78.45
2023-02-19T15:24:08.817Z,78.45
2023-02-19T15:26:38.433Z,78.62
2023-02-19T15:29:11.704Z,76.74
2023-02-19T15:31:46.014Z,78.25
2023-02-19T15:34:19.833Z,77.21
2023-02-19T15:36:49.051Z,76.47
2023-02-19T15:39:24.942Z,77.25
2023-02-19T15:42:00.088Z,78.06
2023-02-19T15:44:35.393Z,77.27
2023-02-19T15:47:10.239Z,77.85
2023-02-19T15:49:47.393Z,78.05
2023-02-19T15:52:26.969Z,78.07
2023-02-19T15:54:59.048Z,79.60
2023-02-19T15:57:33.519Z,79.11
2023-02-19T16:00:07.091Z,78.38
2023-02-19T16:02:35.042Z,78.64
2023-02-19T16:05:12.941Z,78.50
2023-02-19T16:07:40.438Z,77.98
2023-02-19T16:10:19.694Z,77.14
2023-02-19T16:12:56.303Z,77.24
2023-02-19T16:15:23.883Z,76.36
2023-02-19T16:17:51.611Z,77.03
2023-02-19T16:20:24.852Z,76.50
2023-02-19T16:22:57.235Z,76.34
2023-02-19T16:25:29.267Z,75.95
2023-02-19T16:27:57.403Z,76.59
2023-02-19T16:30:29.499Z,76.52
2023-02-19T16:33:22.924Z,77.64
2023-02-19T16:35:52.709Z,77.67
2023-02-19T16:38:21.705Z,77.00
2023-02-19T16:41:13.626Z,77.23
2023-02-19T16:43:42.917Z,77.19
2023-02-19T16:46:12.718Z,77.35
2023-02-19T16:48:40.542Z,77.63
2023-02-19T16:51:16.441Z,77.21
2023-02-19T16:53:43.919Z,77.23
2023-02-19T16:56:16.393Z,78.67
2023-02-19T16:58:43.989Z,77.52
2023-02-19T17:01:12.008Z,78.02
2023-02-19T17:03:40.503Z,77.58
2023-02-19T17:06:09.420Z,79.18
2023-02-19T17:08:39.013Z,78.14
2023-02-19T17:11:08.123Z,77.53
2023-02-19T17:13:35.606Z,77.87
2023-02-19T17:16:03.638Z,77.02
2023-02-19T17:18:31.132Z,76.35
2023-02-19T17:21:02.982Z,76.86
2023-02-19T17:23:31.873Z,76.64
2023-02-19T17:25:59.379Z,76.32
2023-02-19T17:28:26.936Z,75.90
2023-02-19T17:30:55.012Z,75.10
2023-02-19T17:33:22.546Z,75.33
2023-02-19T17:35:50.067Z,74.94
2023-02-19T17:38:17.538Z,75.32
2023-02-19T17:40:46.389Z,75.20
2023-02-19T17:43:14.565Z,75.96
2023-02-19T17:45:42.229Z,75.63
2023-02-19T17:48:12.827Z,75.66
2023-02-19T17:50:41.175Z,74.87
2023-02-19T17:53:09.271Z,75.05
2023-02-19T17:55:36.763Z,74.71
2023-02-19T17:58:05.626Z,74.96
2023-02-19T18:00:33.185Z,75.00
2023-02-19T18:03:00.696Z,74.53
2023-02-19T18:05:28.135Z,74.80
2023-02-19T18:07:55.716Z,75.53
2023-02-19T18:10:24.559Z,75.76
2023-02-19T18:12:52.410Z,76.78
2023-02-19T18:15:23.382Z,76.49
2023-02-19T18:17:51.392Z,75.91
2023-02-19T18:20:21.348Z,75.76
2023-02-19T18:22:48.794Z,76.81
2023-02-19T18:25:16.955Z,76.10
2023-02-19T18:27:44.610Z,76.53
2023-02-19T18:30:15.433Z,76.35
2023-02-19T18:32:44.337Z,76.50
2023-02-19T18:35:12.362Z,76.81
2023-02-19T18:37:39.846Z,76.17
2023-02-19T18:40:08.545Z,76.76
2023-02-19T18:42:36.220Z,77.83
2023-02-19T18:45:04.246Z,78.59
2023-02-19T18:47:31.734Z,78.49
2023-02-19T18:50:00.558Z,78.78
2023-02-19T18:52:29.017Z,79.59
2023-02-19T18:54:57.733Z,81.08
2023-02-19T18:57:26.243Z,80.01
2023-02-19T18:59:54.227Z,79.02
2023-02-19T19:02:21.861Z,80.62
2023-02-19T19:04:51.477Z,79.50
2023-02-19T19:07:21.127Z,78.61
2023-02-19T19:09:48.937Z,78.72
2023-02-19T19:12:16.877Z,77.63
2023-02-19T19:14:45.573Z,78.38
2023-02-19T19:17:13.023Z,77.93
2023-02-19T19:19:41.194Z,77.20
2023-02-19T19:22:08.718Z,77.59
2023-02-19T19:24:37.565Z,77.07
2023-02-19T19:27:05.248Z,76.16
2023-02-19T19:29:32.862Z,75.85
2023-02-19T19:32:00.378Z,75.71
2023-02-19T19:34:27.900Z,75.41
2023-02-19T19:36:55.401Z,75.60
2023-02-19T19:39:22.894Z,75.12
2023-02-19T19:41:55.939Z,74.53
2023-02-19T19:44:23.970Z,74.13
2023-02-19T19:46:51.668Z,74.54
2023-02-19T19:49:19.825Z,74.34
2023-02-19T19:51:47.812Z,74.01
2023-02-19T19:54:15.802Z,74.79
2023-02-19T19:56:44.703Z,74.20
2023-02-19T19:59:15.206Z,73.65
2023-02-19T20:01:49.586Z,74.68
2023-02-19T20:04:17.289Z,74.64
2023-02-19T20:06:44.804Z,75.23
2023-02-19T20:09:12.862Z,74.89
2023-02-19T20:11:47.507Z,75.30
2023-02-19T20:14:17.448Z,74.81
2023-02-19T20:16:47.352Z,73.78
2023-02-19T20:19:15.551Z,73.33
2023-02-19T20:21:45.462Z,73.16
2023-02-19T20:24:15.136Z,73.12
2023-02-19T20:26:42.819Z,72.68
2023-02-19T20:29:11.010Z,72.12
2023-02-19T20:31:40.621Z,72.28
2023-02-19T20:34:08.287Z,72.58
2023-02-19T20:36:43.340Z,72.60
2023-02-19T20:39:10.883Z,72.84
2023-02-19T20:41:38.487Z,73.42
2023-02-19T20:44:06.338Z,73.15
2023-02-19T20:46:33.868Z,73.44
2023-02-19T20:49:02.744Z,73.57
2023-02-19T20:51:30.272Z,74.06
2023-02-19T20:53:58.258Z,73.86
2023-02-19T20:56:25.780Z,74.26
2023-02-19T20:58:53.259Z,73.97
2023-02-19T21:01:26.570Z,75.57
2023-02-19T21:03:54.469Z,74.96
2023-02-19T21:06:23.286Z,75.18
2023-02-19T21:08:50.769Z,74.90
2023-02-19T21:11:18.520Z,74.63
2023-02-19T21:13:46.008Z,74.33
2023-02-19T21:16:13.929Z,74.60
2023-02-19T21:18:41.600Z,75.60
2023-02-19T21:21:09.136Z,75.72
2023-02-19T21:23:37.937Z,74.96
2023-02-19T21:26:05.945Z,75.45
2023-02-19T21:28:33.400Z,75.02
2023-02-19T21:31:00.923Z,75.46
2023-02-19T21:33:28.517Z,74.70
2023-02-19T21:35:57.396Z,74.61
2023-02-19T21:38:25.168Z,74.97
2023-02-19T21:40:53.984Z,74.15
2023-02-19T21:43:21.497Z,74.65
2023-02-19T21:45:49.086Z,75.47
2023-02-19T21:48:16.608Z,76.16
2023-02-19T21:50:45.576Z,76.71
2023-02-19T21:53:13.083Z,75.29
2023-02-19T21:55:42.941Z,75.66
2023-02-19T21:58:18.836Z,75.25
2023-02-19T22:00:46.318Z,75.35
2023-02-19T22:03:16.454Z,74.99
2023-02-19T22:05:44.142Z,74.57
2023-02-19T22:08:11.766Z,73.93
2023-02-19T22:10:42.272Z,73.80
2023-02-19T22:13:09.852Z,73.17
2023-02-19T22:15:38.675Z,73.75
2023-02-19T22:18:06.738Z,72.80
2023-02-19T22:20:34.665Z,72.46
2023-02-19T22:23:02.144Z,72.54
2023-02-19T22:25:29.604Z,72.73
2023-02-19T22:27:58.920Z,72.32
2023-02-19T22:30:27.677Z,71.54
2023-02-19T22:32:56.541Z,71.88
2023-02-19T22:35:24.021Z,72.21
2023-02-19T22:37:51.594Z,72.19
2023-02-19T22:40:19.098Z,72.87
2023-02-19T22:42:46.795Z,72.45
2023-02-19T22:45:15.120Z,72.33
2023-02-19T22:47:43.660Z,72.84
2023-02-19T22:50:19.501Z,71.78
2023-02-19T22:52:46.971Z,71.46
2023-02-19T22:55:14.501Z,71.35
2023-02-19T22:57:41.988Z,70.49
2023-02-19T23:00:10.536Z,70.91
2023-02-19T23:02:38.033Z,70.78
2023-02-19T23:05:05.788Z,70.29
2023-02-19T23:07:34.608Z,70.83
2023-02-19T23:10:02.090Z,70.08
2023-02-19T23:12:29.766Z,69.68
2023-02-19T23:14:57.238Z,70.57
2023-02-19T23:17:24.706Z,70.45
2023-02-19T23:19:52.179Z,69.50
2023-02-19T23:22:19.963Z,70.40
2023-02-19T23:24:48.803Z,70.46
2023-02-19T23:27:16.413Z,69.02
2023-02-19T23:29:43.870Z,69.11
2023-02-19T23:32:11.707Z,69.77
2023-02-19T23:34:39.199Z,68.53
2023-02-19T23:37:06.671Z,69.11
2023-02-19T23:39:34.146Z,69.48
2023-02-19T23:42:02.963Z,69.44
2023-02-19T23:44:30.432Z,70.11
2023-02-19T23:46:58.012Z,70.84
2023-02-19T23:49:25.522Z,70.31
2023-02-19T23:51:53.121Z,71.73
2023-02-19T23:54:20.661Z,71.53
2023-02-19T23:56:48.114Z,71.86
2023-02-19T23:59:16.974Z,70.70
